Time;durP1;ratioP1;P1;durP2;ratioP2;P2;SDS_P1;SDS_P2;PMS_P1;PMS_P2;Temp;Humidity;BMP_temperature;BMP_pressure;BME280_temperature;BME280_humidity;BME280_pressure;Samples;Min_cycle;Max_cycle;Signal;HPM_P1;HPM_P2
2022/01/24 00:00:00;;;;;;;;;52.75;42.00;;;;;2.77;81.89;102754.94;5018016;28;45175;-76
2022/01/24 00:02:28;;;;;;;;;54.50;44.50;;;;;2.83;81.23;102762.53;4999949;28;45258;-76
2022/01/24 00:04:53;;;;;;;;;53.00;43.00;;;;;2.83;81.24;102759.91;5015104;28;45329;-74
2022/01/24 00:07:22;;;;;;;;;54.25;46.00;;;;;2.79;81.73;102750.47;5015746;28;45012;-75
2022/01/24 00:09:48;;;;;;;;;58.75;48.75;;;;;2.76;81.89;102740.13;5014020;28;45285;-75
2022/01/24 00:12:18;;;;;;;;;53.25;43.75;;;;;2.75;82.23;102735.78;5011067;28;45152;-76
2022/01/24 00:15:06;;;;;;;;;49.75;40.50;;;;;2.83;82.25;102749.41;5010885;28;45249;-74
2022/01/24 00:17:38;;;;;;;;;52.00;44.50;;;;;2.74;81.89;102731.44;5007656;28;45259;-74
2022/01/24 00:28:19;;;;;;;;;55.50;42.25;;;;;2.77;82.01;102745.31;5018269;28;44596;-76
2022/01/24 00:30:45;;;;;;;;;55.50;46.00;;;;;2.70;82.02;102741.28;5001143;28;47333;-76
2022/01/24 00:33:10;;;;;;;;;52.75;43.50;;;;;2.67;81.85;102733.53;5018105;28;44675;-75
2022/01/24 00:35:36;;;;;;;;;52.75;43.75;;;;;2.64;82.58;102729.25;5019710;28;45347;-75
2022/01/24 00:38:02;;;;;;;;;46.00;39.50;;;;;2.64;81.36;102731.06;5018509;28;44771;-76
2022/01/24 00:40:30;;;;;;;;;46.25;39.50;;;;;2.52;82.41;102716.72;5017907;28;45930;-75
2022/01/24 00:42:58;;;;;;;;;48.75;41.75;;;;;2.60;81.95;102737.38;5019650;28;44715;-76
2022/01/24 00:48:09;;;;;;;;;52.25;43.50;;;;;2.53;81.56;102726.31;5017455;28;45430;-75
2022/01/24 00:54:42;;;;;;;;;53.50;44.25;;;;;2.52;82.45;102735.94;5019766;28;44644;-76
2022/01/24 00:56:06;;;;;;;;;51.25;43.75;;;;;2.51;81.16;102741.25;5010746;28;44731;-75
2022/01/24 00:58:32;;;;;;;;;46.50;40.50;;;;;2.35;82.06;102718.38;5017406;28;44782;-76
2022/01/24 01:00:57;;;;;;;;;43.00;38.00;;;;;2.38;82.11;102725.25;5000983;28;47016;-75
2022/01/24 01:03:24;;;;;;;;;47.75;41.25;;;;;2.33;82.12;102719.38;5016968;28;45246;-76
2022/01/24 01:18:58;;;;;;;;;47.75;40.75;;;;;1.96;81.82;102714.88;5014774;28;45252;-76
2022/01/24 01:21:24;;;;;;;;;53.25;41.75;;;;;1.95;81.93;102718.38;5014800;28;46028;-76
2022/01/24 01:23:56;;;;;;;;;53.25;43.00;;;;;1.87;82.13;102708.25;5014114;28;44714;-76
2022/01/24 01:26:45;;;;;;;;;43.75;38.75;;;;;1.84;81.21;102707.53;5013344;28;45202;-76
2022/01/24 01:29:19;;;;;;;;;52.00;43.00;;;;;1.91;81.26;102723.88;4998662;28;47355;-75
2022/01/24 01:37:29;;;;;;;;;51.25;41.25;;;;;1.92;81.76;102726.41;5012981;28;45318;-75
2022/01/24 01:55:48;;;;;;;;;42.00;39.25;;;;;1.58;81.74;102693.78;5012242;28;45436;-74
2022/01/24 01:58:17;;;;;;;;;44.25;38.25;;;;;1.66;81.52;102711.81;4993037;28;45316;-75
2022/01/24 02:00:46;;;;;;;;;42.75;38.00;;;;;1.54;81.40;102700.94;5010721;28;45436;-74
2022/01/24 02:03:12;;;;;;;;;46.25;37.00;;;;;1.60;81.15;102718.19;4991350;28;47270;-74
2022/01/24 02:05:38;;;;;;;;;48.75;39.50;;;;;1.56;81.29;102716.63;5014982;28;44962;-74
2022/01/24 02:08:04;;;;;;;;;47.75;40.25;;;;;1.38;81.29;102701.59;5009859;28;45313;-74
2022/01/24 02:10:30;;;;;;;;;51.00;42.00;;;;;1.51;81.34;102716.81;5013614;28;45324;-74
2022/01/24 02:12:57;;;;;;;;;39.50;37.00;;;;;1.50;81.71;102715.94;5014465;28;45320;-74
2022/01/24 02:15:37;;;;;;;;;47.00;40.25;;;;;1.43;81.60;102708.44;4986828;28;45302;-74
2022/01/24 02:18:14;;;;;;;;;44.75;40.00;;;;;1.39;81.50;102699.84;4997183;28;45387;-74
2022/01/24 02:26:06;;;;;;;;;48.50;40.75;;;;;1.16;81.49;102682.47;5006533;28;45331;-74
2022/01/24 02:28:46;;;;;;;;;43.00;36.25;;;;;1.29;81.73;102709.00;5003074;28;45238;-74
2022/01/24 02:33:55;;;;;;;;;39.25;35.75;;;;;1.04;82.00;102676.00;5008768;28;45310;-74
2022/01/24 02:36:23;;;;;;;;;45.25;39.75;;;;;1.18;81.57;102704.22;5003545;28;45304;-74
2022/01/24 02:49:32;;;;;;;;;44.50;40.00;;;;;1.05;81.88;102682.91;5001684;28;45299;-74
2022/01/24 02:52:02;;;;;;;;;49.25;43.50;;;;;0.97;82.39;102668.38;5001631;28;45428;-73
2022/01/24 02:54:29;;;;;;;;;53.75;44.75;;;;;1.01;82.98;102679.56;5001570;28;46555;-74
2022/01/24 02:56:55;;;;;;;;;47.00;41.50;;;;;1.02;82.58;102669.94;5000324;28;45168;-73
2022/01/24 02:59:20;;;;;;;;;50.00;41.75;;;;;0.99;83.25;102668.31;5001716;28;45222;-74
2022/01/24 03:01:46;;;;;;;;;44.75;40.50;;;;;1.02;83.19;102665.56;5001484;28;45253;-74
2022/01/24 03:04:12;;;;;;;;;44.00;39.50;;;;;1.03;82.80;102662.03;5001313;28;45239;-74
2022/01/24 03:06:37;;;;;;;;;54.75;45.50;;;;;1.10;82.34;102680.94;5001713;28;45366;-75
2022/01/24 03:09:06;;;;;;;;;50.50;41.25;;;;;1.05;82.60;102668.03;5001365;28;45591;-74
2022/01/24 03:11:55;;;;;;;;;43.00;39.00;;;;;0.96;83.06;102652.72;4983584;28;47334;-74
2022/01/24 03:14:18;;;;;;;;;45.50;41.00;;;;;1.03;83.32;102666.41;5000891;28;45916;-74
2022/01/24 03:16:44;;;;;;;;;47.25;40.25;;;;;1.03;83.38;102664.66;5001254;28;45305;-74
2022/01/24 03:19:09;;;;;;;;;47.25;41.25;;;;;0.97;83.38;102649.19;5001051;28;45222;-74
2022/01/24 03:21:34;;;;;;;;;43.00;39.25;;;;;0.97;83.26;102646.56;5001327;28;45177;-74
2022/01/24 03:24:00;;;;;;;;;46.75;40.50;;;;;1.03;83.32;102648.94;5001124;28;45255;-74
2022/01/24 03:26:25;;;;;;;;;46.25;41.00;;;;;1.07;82.95;102657.50;4983555;28;45297;-74
2022/01/24 03:28:51;;;;;;;;;46.75;41.50;;;;;0.96;84.06;102637.03;5001460;28;45235;-74
2022/01/24 03:31:16;;;;;;;;;46.50;41.00;;;;;1.01;83.42;102663.84;5001017;28;45476;-74
2022/01/24 03:33:42;;;;;;;;;38.50;32.75;;;;;1.00;84.10;102655.16;5000928;28;46128;-74
2022/01/24 03:36:07;;;;;;;;;37.00;34.25;;;;;1.00;83.51;102655.16;5001162;28;45232;-74
2022/01/24 03:38:33;;;;;;;;;37.00;33.75;;;;;1.03;83.68;102661.16;4983478;28;45346;-74
2022/01/24 03:40:58;;;;;;;;;38.25;36.25;;;;;0.93;83.28;102647.63;5000836;28;45498;-74
2022/01/24 03:43:24;;;;;;;;;40.75;38.75;;;;;0.93;83.59;102655.47;4983012;28;46941;-75
2022/01/24 03:46:11;;;;;;;;;37.25;36.75;;;;;0.88;83.54;102650.41;5000985;28;45412;-74
2022/01/24 03:48:41;;;;;;;;;50.75;39.50;;;;;0.86;83.59;102645.25;5000592;28;45254;-74
2022/01/24 03:51:07;;;;;;;;;39.75;36.75;;;;;0.94;83.30;102662.41;5000662;28;45338;-75
2022/01/24 03:53:33;;;;;;;;;40.75;38.00;;;;;0.87;84.30;102654.78;5000652;28;45389;-75
2022/01/24 03:55:59;;;;;;;;;41.00;37.75;;;;;0.94;84.12;102659.78;5000721;28;45389;-74
2022/01/24 03:58:24;;;;;;;;;35.75;33.75;;;;;0.84;83.50;102648.84;5000883;28;45340;-74
2022/01/24 04:00:50;;;;;;;;;38.00;36.25;;;;;0.87;83.38;102653.97;5000738;28;45329;-74
2022/01/24 04:03:15;;;;;;;;;38.50;38.00;;;;;0.81;84.01;102649.81;5000537;28;46703;-75
2022/01/24 04:05:42;;;;;;;;;39.50;37.25;;;;;0.87;84.04;102657.41;5000652;28;45367;-74
2022/01/24 04:08:07;;;;;;;;;54.00;43.25;;;;;0.85;84.21;102650.53;5000288;28;45310;-75
2022/01/24 04:10:42;;;;;;;;;40.00;35.75;;;;;0.93;84.32;102658.09;5000336;28;45475;-75
2022/01/24 04:13:22;;;;;;;;;44.00;38.50;;;;;0.86;83.90;102645.25;5000662;28;45317;-75
2022/01/24 04:18:51;;;;;;;;;49.25;41.00;;;;;0.90;84.65;102638.13;5000158;28;45261;-74
2022/01/24 04:21:25;;;;;;;;;46.25;40.75;;;;;0.96;84.09;102650.13;5000383;28;45232;-75
2022/01/24 04:26:28;;;;;;;;;40.25;37.50;;;;;0.96;84.09;102647.50;5000306;28;45242;-74
2022/01/24 04:28:54;;;;;;;;;42.00;39.25;;;;;0.95;84.32;102646.63;5000192;28;45351;-74
2022/01/24 04:31:20;;;;;;;;;44.75;38.75;;;;;0.84;83.97;102633.97;4982152;28;46096;-75
2022/01/24 04:33:46;;;;;;;;;47.00;40.75;;;;;0.91;83.80;102646.81;5000225;28;46071;-74
2022/01/24 04:36:12;;;;;;;;;45.00;41.25;;;;;0.92;84.11;102651.13;4982398;28;45275;-75
2022/01/24 04:38:37;;;;;;;;;49.25;42.00;;;;;0.83;84.01;102634.03;5000365;28;45789;-75
2022/01/24 04:41:07;;;;;;;;;42.00;38.00;;;;;0.87;84.25;102644.31;5000438;28;45359;-76
2022/01/24 04:43:50;;;;;;;;;46.00;40.25;;;;;0.81;84.08;102634.09;5000318;28;45545;-75
2022/01/24 04:46:43;;;;;;;;;49.00;42.00;;;;;0.84;84.34;102644.44;5000031;28;45175;-74
2022/01/24 04:56:39;;;;;;;;;41.25;37.75;;;;;0.81;84.46;102628.88;5000199;28;45239;-75
2022/01/24 04:59:05;;;;;;;;;48.00;39.50;;;;;0.93;84.36;102647.63;5000944;28;45258;-75
2022/01/24 05:01:31;;;;;;;;;48.75;42.00;;;;;0.88;84.64;102629.47;4983014;28;46273;-74
2022/01/24 05:03:57;;;;;;;;;40.50;37.00;;;;;0.95;84.85;102648.38;4983035;28;47741;-75
2022/01/24 05:06:22;;;;;;;;;33.00;31.25;;;;;0.95;84.69;102640.53;5001164;28;45355;-74
2022/01/24 05:08:48;;;;;;;;;44.50;39.75;;;;;0.96;84.44;102648.31;5002487;28;45224;-76
2022/01/24 05:11:18;;;;;;;;;45.25;40.25;;;;;0.81;84.75;102623.63;5001785;28;45486;-75
2022/01/24 05:24:36;;;;;;;;;46.75;39.75;;;;;0.99;84.65;102642.13;5007506;28;46131;-75
2022/01/24 05:27:01;;;;;;;;;22.75;20.75;;;;;0.95;84.78;102635.28;5006298;28;45323;-75
2022/01/24 05:29:27;;;;;;;;;27.50;23.50;;;;;0.97;84.21;102643.94;5007677;28;45291;-75
2022/01/24 05:31:55;;;;;;;;;44.00;38.75;;;;;0.92;84.99;102640.66;5005431;28;45467;-74
2022/01/24 05:34:20;;;;;;;;;41.25;35.75;;;;;0.84;84.36;102625.28;5006512;28;45199;-74
2022/01/24 05:36:45;;;;;;;;;46.00;40.25;;;;;0.92;84.89;102636.28;5009709;28;45225;-75
2022/01/24 05:39:11;;;;;;;;;48.50;41.00;;;;;0.90;84.72;102632.03;5006643;28;45140;-74
2022/01/24 05:41:37;;;;;;;;;44.75;41.50;;;;;0.87;84.51;102625.16;4989964;28;46112;-74
2022/01/24 05:44:04;;;;;;;;;48.50;40.00;;;;;0.90;84.50;102630.28;5006798;28;45325;-74
2022/01/24 05:46:29;;;;;;;;;47.25;40.25;;;;;0.88;84.68;102632.97;5007747;28;45278;-74
2022/01/24 05:48:55;;;;;;;;;56.75;44.25;;;;;0.85;84.53;102634.84;4988908;28;45882;-74
2022/01/24 05:51:20;;;;;;;;;42.50;39.50;;;;;0.88;84.54;102634.72;5006987;28;45554;-75
2022/01/24 05:53:46;;;;;;;;;35.00;32.25;;;;;0.83;84.77;102631.41;4989265;28;48281;-74
2022/01/24 05:56:12;;;;;;;;;39.75;36.75;;;;;0.84;84.04;102627.91;4989183;28;45946;-75
2022/01/24 05:58:37;;;;;;;;;42.25;40.00;;;;;0.79;84.22;102622.84;5007548;28;45249;-74
2022/01/24 06:01:03;;;;;;;;;43.75;38.00;;;;;0.79;84.37;102615.00;5006770;28;45432;-74
2022/01/24 06:03:28;;;;;;;;;41.50;36.25;;;;;0.72;84.36;102616.19;4988564;28;48178;-74
2022/01/24 06:05:53;;;;;;;;;47.25;39.00;;;;;0.69;83.96;102618.91;5006128;28;45626;-74
2022/01/24 06:08:19;;;;;;;;;38.75;35.50;;;;;0.68;83.96;102628.53;5006148;28;45300;-74
2022/01/24 06:10:46;;;;;;;;;46.75;40.25;;;;;0.73;83.96;102644.03;5005827;28;45135;-75
2022/01/24 06:13:12;;;;;;;;;35.75;32.75;;;;;0.62;84.38;102634.88;5005615;28;45274;-74
2022/01/24 06:15:37;;;;;;;;;43.25;39.00;;;;;0.67;84.32;102647.78;5005703;28;45287;-75
2022/01/24 06:18:02;;;;;;;;;39.50;34.75;;;;;0.65;84.12;102639.13;4987474;28;45319;-74
2022/01/24 06:20:28;;;;;;;;;43.75;41.00;;;;;0.58;84.17;102638.53;5005472;28;45443;-75
2022/01/24 06:22:53;;;;;;;;;43.00;40.00;;;;;0.54;84.17;102636.09;5005109;28;46185;-75
2022/01/24 06:25:23;;;;;;;;;45.50;38.50;;;;;0.62;84.79;102655.81;5007046;28;45348;-75
2022/01/24 06:27:48;;;;;;;;;47.75;40.75;;;;;0.59;85.33;102640.22;5004390;28;45351;-74
2022/01/24 06:30:14;;;;;;;;;42.75;38.25;;;;;0.59;84.66;102634.13;5002622;28;45246;-73
2022/01/24 06:32:39;;;;;;;;;46.50;41.00;;;;;0.69;85.13;102651.16;5001974;28;46058;-73
2022/01/24 06:35:07;;;;;;;;;46.25;40.25;;;;;0.67;84.89;102639.91;5003202;28;45211;-74
2022/01/24 06:37:32;;;;;;;;;46.25;40.50;;;;;0.71;84.63;102656.34;4991600;28;45362;-74
2022/01/24 06:39:58;;;;;;;;;39.00;36.50;;;;;0.70;84.77;102658.13;5004143;28;45153;-74
2022/01/24 06:42:23;;;;;;;;;43.50;38.25;;;;;0.62;84.93;102640.09;5003384;28;45353;-74
2022/01/24 06:44:50;;;;;;;;;39.75;33.25;;;;;0.52;85.20;102625.69;4985535;28;45862;-74
2022/01/24 06:47:16;;;;;;;;;42.25;38.50;;;;;0.64;84.63;102653.13;5005211;28;45305;-73
2022/01/24 06:49:42;;;;;;;;;46.25;40.00;;;;;0.61;85.07;102646.25;5005710;28;45303;-74
2022/01/24 06:52:07;;;;;;;;;46.00;38.75;;;;;0.54;84.45;102636.09;5002784;28;46129;-74
2022/01/24 06:54:34;;;;;;;;;38.75;36.25;;;;;0.60;84.26;102657.63;4983898;28;45348;-74
2022/01/24 06:57:00;;;;;;;;;48.00;39.75;;;;;0.59;84.44;102657.69;5002409;28;45235;-73
2022/01/24 06:59:26;;;;;;;;;47.00;41.25;;;;;0.48;84.38;102651.09;4986968;28;46320;-73
2022/01/24 07:01:52;;;;;;;;;42.00;39.00;;;;;0.59;84.62;102658.53;5001463;28;46287;-73
2022/01/24 07:04:17;;;;;;;;;39.75;38.25;;;;;0.53;84.90;102656.16;5001654;28;45159;-73
2022/01/24 07:06:43;;;;;;;;;34.75;33.75;;;;;0.56;84.71;102655.19;5001139;28;45436;-73
2022/01/24 07:09:09;;;;;;;;;42.00;39.25;;;;;0.61;84.65;102663.72;4984069;28;45605;-74
2022/01/24 07:11:34;;;;;;;;;49.75;41.50;;;;;0.54;84.79;102652.63;5001608;28;45297;-72
2022/01/24 07:14:00;;;;;;;;;47.75;41.25;;;;;0.49;84.31;102647.59;5001421;28;45253;-74
2022/01/24 07:16:36;;;;;;;;;40.00;35.25;;;;;0.56;84.84;102658.66;5007269;28;45332;-74
2022/01/24 07:19:03;;;;;;;;;46.00;41.25;;;;;0.49;84.98;102655.44;5001050;28;45320;-77
2022/01/24 07:21:29;;;;;;;;;46.25;41.25;;;;;0.58;84.91;102658.59;5014306;28;45176;-77
2022/01/24 07:23:55;;;;;;;;;44.75;38.75;;;;;0.53;85.29;102643.06;4988345;28;45199;-77
2022/01/24 07:26:20;;;;;;;;;43.25;36.75;;;;;0.48;85.13;102637.19;5009945;28;45159;-78
2022/01/24 07:28:45;;;;;;;;;41.25;38.50;;;;;0.66;85.44;102663.53;4989700;28;47252;-77
2022/01/24 07:31:12;;;;;;;;;48.25;40.50;;;;;0.60;84.70;102652.38;5004249;28;45354;-77
2022/01/24 07:33:37;;;;;;;;;46.50;40.75;;;;;0.71;85.39;102665.06;4987983;28;46039;-75
2022/01/24 07:36:03;;;;;;;;;49.25;42.00;;;;;0.68;85.21;102653.84;4999543;28;45701;-75
2022/01/24 07:38:29;;;;;;;;;38.25;29.25;;;;;0.76;85.17;102667.47;5004431;28;45334;-74
2022/01/24 07:40:56;;;;;;;;;42.50;38.00;;;;;0.69;85.05;102656.41;5014780;28;45346;-73
2022/01/24 07:43:21;;;;;;;;;45.00;38.25;;;;;0.77;85.01;102665.72;5020272;28;45297;-74
2022/01/24 07:45:48;;;;;;;;;49.75;36.25;;;;;0.77;85.07;102665.72;5021079;28;45547;-74
2022/01/24 07:48:16;;;;;;;;;45.75;39.75;;;;;0.68;84.93;102640.75;5020675;28;45273;-74
2022/01/24 07:50:44;;;;;;;;;44.00;39.25;;;;;0.68;84.69;102643.38;5002725;28;47955;-73
2022/01/24 07:53:12;;;;;;;;;41.75;39.50;;;;;0.73;85.25;102649.28;5024260;28;45507;-76
2022/01/24 07:55:38;;;;;;;;;70.25;57.00;;;;;0.69;84.99;102655.56;5037125;28;45338;-76
2022/01/24 07:58:04;;;;;;;;;59.25;45.50;;;;;0.72;84.44;102656.28;5012245;28;47055;-75
2022/01/24 08:00:29;;;;;;;;;46.00;39.00;;;;;0.79;84.69;102671.75;5024090;28;45524;-75
2022/01/24 08:02:57;;;;;;;;;47.25;39.50;;;;;0.75;85.01;102660.56;4997762;28;44768;-75
2022/01/24 08:05:23;;;;;;;;;47.75;41.00;;;;;0.79;85.28;102669.13;5006853;28;45277;-77
2022/01/24 08:07:48;;;;;;;;;53.50;44.00;;;;;0.75;85.20;102668.41;5019612;28;45445;-76
2022/01/24 08:10:13;;;;;;;;;45.25;40.75;;;;;0.73;85.45;102651.91;5019794;28;45434;-77
2022/01/24 08:12:39;;;;;;;;;49.00;41.25;;;;;0.75;84.83;102655.31;5018622;28;45724;-77
2022/01/24 08:15:06;;;;;;;;;46.25;41.25;;;;;0.79;85.29;102658.66;5001073;28;45357;-77
2022/01/24 08:17:31;;;;;;;;;44.25;40.25;;;;;0.86;85.38;102671.44;5016068;28;45583;-77
2022/01/24 08:19:57;;;;;;;;;38.00;36.00;;;;;0.87;84.34;102674.91;4991906;28;45344;-78
2022/01/24 08:22:23;;;;;;;;;44.50;41.50;;;;;0.85;84.08;102685.44;4982506;28;45590;-78
2022/01/24 08:24:52;;;;;;;;;45.50;40.50;;;;;0.81;84.54;102681.22;5000299;28;45338;-78
2022/01/24 08:27:18;;;;;;;;;54.25;44.25;;;;;0.77;84.32;102682.28;4999714;28;45173;-78
2022/01/24 08:29:45;;;;;;;;;49.50;44.00;;;;;0.62;84.52;102661.03;4999597;28;46016;-77
2022/01/24 08:32:11;;;;;;;;;50.50;44.00;;;;;0.67;84.21;102676.56;4982338;28;45362;-77
2022/01/24 08:34:36;;;;;;;;;52.50;44.25;;;;;0.64;85.12;102671.44;4980450;28;45395;-78
2022/01/24 08:37:02;;;;;;;;;55.00;44.50;;;;;0.62;84.73;102663.66;4999574;28;45294;-76
2022/01/24 08:39:27;;;;;;;;;53.25;43.75;;;;;0.68;85.30;102680.00;4999457;28;46305;-76
2022/01/24 08:47:03;;;;;;;;;56.00;46.25;;;;;0.87;85.39;102688.84;4999746;28;45332;-76
2022/01/24 08:49:28;;;;;;;;;58.50;46.00;;;;;1.01;85.13;102697.91;4981715;28;46538;-76
2022/01/24 08:51:53;;;;;;;;;50.50;43.50;;;;;1.06;84.96;102697.72;4981858;28;45173;-76
2022/01/24 08:54:19;;;;;;;;;52.25;45.50;;;;;0.98;84.42;102680.56;4999952;28;45217;-76
2022/01/24 08:56:45;;;;;;;;;49.25;44.50;;;;;1.09;85.18;102698.44;4999953;28;45201;-76
2022/01/24 08:59:11;;;;;;;;;51.25;44.50;;;;;1.08;84.45;102690.66;4999480;28;45268;-76
2022/01/24 09:01:37;;;;;;;;;43.25;38.75;;;;;1.13;85.09;102686.91;4999696;28;45215;-77
2022/01/24 09:04:02;;;;;;;;;46.50;42.50;;;;;1.12;85.12;102684.38;4999995;28;45239;-76
2022/01/24 09:06:29;;;;;;;;;59.00;46.75;;;;;1.21;85.14;102694.47;4999842;28;45365;-76
2022/01/24 09:09:03;;;;;;;;;56.50;45.75;;;;;1.26;85.28;102700.34;4999664;28;45339;-76
2022/01/24 09:11:31;;;;;;;;;47.75;42.00;;;;;1.36;85.11;102706.06;4999672;28;45447;-76
2022/01/24 09:13:57;;;;;;;;;52.00;44.25;;;;;1.37;85.65;102702.53;4999827;28;45314;-76
2022/01/24 09:16:24;;;;;;;;;58.00;49.50;;;;;1.41;85.29;102702.41;4999401;28;45397;-76
2022/01/24 09:18:49;;;;;;;;;54.75;43.25;;;;;1.53;84.87;102703.63;4997899;28;47230;-76
2022/01/24 09:21:15;;;;;;;;;51.25;43.50;;;;;1.66;84.78;102706.56;5018267;28;45284;-75
2022/01/24 09:23:40;;;;;;;;;57.00;47.50;;;;;1.73;85.05;102711.47;5019291;28;45261;-76
2022/01/24 09:26:06;;;;;;;;;58.75;48.50;;;;;1.77;85.25;102710.44;5001276;28;46971;-76
2022/01/24 09:28:31;;;;;;;;;63.00;48.50;;;;;1.83;84.98;102708.47;5013714;28;45273;-77
2022/01/24 09:30:57;;;;;;;;;56.00;46.00;;;;;1.82;84.51;102699.75;4998363;28;45267;-76
2022/01/24 09:33:23;;;;;;;;;57.25;46.00;;;;;1.93;84.65;102709.75;4999122;28;45293;-77
2022/01/24 09:35:48;;;;;;;;;54.75;46.00;;;;;1.98;84.86;102704.31;4999341;28;45368;-77
2022/01/24 09:38:15;;;;;;;;;49.25;42.75;;;;;1.96;84.54;102691.25;4999138;28;45337;-76
2022/01/24 09:40:40;;;;;;;;;59.00;45.50;;;;;2.06;85.08;102696.94;4981231;28;46247;-76
2022/01/24 09:43:06;;;;;;;;;60.25;48.25;;;;;2.10;84.90;102698.47;4981169;28;45421;-76
2022/01/24 09:45:32;;;;;;;;;58.00;48.50;;;;;2.09;85.04;102694.16;4981139;28;47394;-76
2022/01/24 09:47:58;;;;;;;;;49.75;43.25;;;;;2.14;84.74;102688.72;4998846;28;45996;-77
2022/01/24 09:50:24;;;;;;;;;46.50;40.75;;;;;2.29;85.33;102710.78;4981119;28;45308;-76
2022/01/24 09:52:50;;;;;;;;;56.00;45.00;;;;;2.34;84.74;102702.69;4999137;28;45242;-77
2022/01/24 09:55:19;;;;;;;;;52.00;45.25;;;;;2.32;84.82;102694.88;4981124;28;45456;-77
2022/01/24 09:57:47;;;;;;;;;54.00;45.25;;;;;2.50;84.68;102713.31;4998759;28;46125;-77
2022/01/24 10:00:15;;;;;;;;;53.50;44.00;;;;;2.47;84.30;102701.19;4998851;28;45270;-78
2022/01/24 10:02:43;;;;;;;;;57.00;46.25;;;;;2.56;84.22;102707.78;4998941;28;45199;-77
2022/01/24 10:05:24;;;;;;;;;61.25;48.50;;;;;2.63;84.54;102693.44;4999893;28;45333;-78
2022/01/24 10:07:55;;;;;;;;;86.75;68.50;;;;;2.79;84.52;102705.84;5001032;28;48554;-78
2022/01/24 10:10:34;;;;;;;;;82.50;63.00;;;;;2.93;84.25;102709.56;5001797;28;45535;-78
2022/01/24 10:16:31;;;;;;;;;53.75;41.00;;;;;3.03;84.06;102706.38;4990874;28;45409;-78
2022/01/24 10:19:26;;;;;;;;;51.75;43.50;;;;;3.05;83.26;102703.69;4983986;28;45754;-78
2022/01/24 10:21:53;;;;;;;;;45.75;38.00;;;;;3.06;83.40;102707.19;4995682;28;45378;-79
2022/01/24 10:24:44;;;;;;;;;51.50;42.25;;;;;3.07;83.80;102712.34;5001138;28;45265;-79
2022/01/24 10:27:28;;;;;;;;;52.75;42.25;;;;;3.00;83.18;102696.03;5017242;28;46024;-79
2022/01/24 10:30:10;;;;;;;;;54.00;43.75;;;;;3.03;83.29;102700.31;5001694;28;46076;-78
2022/01/24 10:32:43;;;;;;;;;52.50;41.75;;;;;3.15;83.07;102712.81;4983804;28;45263;-78
2022/01/24 10:35:31;;;;;;;;;65.00;52.25;;;;;3.20;83.43;102709.13;4983265;28;45293;-78
2022/01/24 10:43:40;;;;;;;;;46.25;40.25;;;;;3.27;83.42;102684.22;5000725;28;45333;-79
2022/01/24 10:46:07;;;;;;;;;47.50;40.00;;;;;3.44;83.32;102703.56;4984834;28;45797;-79
2022/01/24 10:48:40;;;;;;;;;51.00;42.25;;;;;3.49;82.96;102698.88;5004632;28;45430;-78
2022/01/24 10:51:13;;;;;;;;;51.50;41.50;;;;;3.52;83.11;102693.47;5001867;28;45228;-77
2022/01/24 10:53:46;;;;;;;;;58.00;44.50;;;;;3.60;83.19;102693.94;4996256;28;45384;-77
2022/01/24 10:56:32;;;;;;;;;80.25;63.00;;;;;3.66;82.67;102687.50;5008532;28;45403;-77
2022/01/24 10:59:10;;;;;;;;;81.00;62.00;;;;;3.74;83.04;102684.47;5009000;28;45250;-77
2022/01/24 11:01:35;;;;;;;;;61.75;50.50;;;;;3.82;82.73;102684.91;4979649;28;46266;-77
2022/01/24 11:04:04;;;;;;;;;57.50;45.00;;;;;3.86;83.03;102686.44;4982750;28;45342;-77
2022/01/24 11:06:33;;;;;;;;;52.75;43.25;;;;;3.92;83.03;102686.13;4965281;28;45275;-78
2022/01/24 11:09:21;;;;;;;;;59.75;47.00;;;;;4.02;82.32;102686.50;4981678;28;45671;-79
2022/01/24 11:11:47;;;;;;;;;66.50;51.75;;;;;4.01;82.16;102683.94;4982016;28;46070;-79
2022/01/24 11:14:16;;;;;;;;;55.00;45.75;;;;;4.07;82.57;102680.13;4982673;28;45431;-79
2022/01/24 11:16:42;;;;;;;;;61.00;48.00;;;;;4.18;82.19;102685.63;4980746;28;45262;-79
2022/01/24 11:19:15;;;;;;;;;53.00;45.25;;;;;4.16;82.72;102672.56;4982601;28;46501;-79
2022/01/24 11:21:42;;;;;;;;;42.75;38.75;;;;;4.17;82.46;102660.25;5008865;28;46974;-78
2022/01/24 11:24:09;;;;;;;;;44.50;39.50;;;;;4.36;82.34;102677.66;5007544;28;44756;-78
2022/01/24 11:26:36;;;;;;;;;51.50;42.25;;;;;4.41;82.67;102673.84;5006484;28;45333;-79
2022/01/24 11:29:04;;;;;;;;;73.75;57.25;;;;;4.36;82.42;102652.19;5009767;28;45499;-77
2022/01/24 11:31:57;;;;;;;;;94.75;78.50;;;;;4.55;81.76;102672.22;5007308;28;47525;-77
2022/01/24 11:34:34;;;;;;;;;71.00;55.75;;;;;4.62;82.02;102668.31;4994293;28;46329;-78
2022/01/24 11:36:59;;;;;;;;;73.50;57.00;;;;;4.67;81.83;102663.59;5001637;28;45211;-80
2022/01/24 11:39:25;;;;;;;;;74.50;54.00;;;;;4.65;81.62;102651.47;5003441;28;45565;-80
2022/01/24 11:41:51;;;;;;;;;53.50;42.75;;;;;4.67;81.35;102650.44;4999955;28;47602;-82
2022/01/24 11:44:19;;;;;;;;;45.75;37.25;;;;;4.78;81.39;102660.38;5001328;28;45210;-83
2022/01/24 11:46:56;;;;;;;;;44.75;37.00;;;;;4.84;81.37;102651.25;5001523;28;45306;-79
2022/01/24 11:49:27;;;;;;;;;51.50;39.25;;;;;4.89;81.38;102646.56;4999957;28;45710;-84
2022/01/24 11:52:14;;;;;;;;;45.50;40.25;;;;;4.95;81.20;102649.78;5007700;28;46207;-81
2022/01/24 11:57:23;;;;;;;;;53.50;42.50;;;;;5.03;80.89;102652.81;5019307;28;45457;-79
2022/01/24 12:00:10;;;;;;;;;46.50;39.00;;;;;5.09;81.04;102651.63;5008165;28;45598;-79
2022/01/24 12:02:45;;;;;;;;;71.25;56.50;;;;;5.16;80.83;102656.44;4983148;28;47071;-79
2022/01/24 12:05:11;;;;;;;;;46.25;38.00;;;;;5.22;80.43;102646.44;4998801;28;46483;-79
2022/01/24 12:07:43;;;;;;;;;36.75;32.75;;;;;5.26;80.21;102656.72;4998238;28;45404;-79
2022/01/24 12:10:43;;;;;;;;;30.00;27.50;;;;;5.32;79.40;102652.03;4997063;28;46121;-79
2022/01/24 12:13:22;;;;;;;;;29.25;27.50;;;;;5.23;79.44;102620.00;4997813;28;45759;-79
2022/01/24 12:15:47;;;;;;;;;29.25;26.75;;;;;5.42;78.91;102638.19;4999491;28;45232;-79
2022/01/24 12:18:20;;;;;;;;;35.50;31.00;;;;;5.48;79.16;102629.03;4979757;28;45520;-79
2022/01/24 12:20:47;;;;;;;;;33.00;28.50;;;;;5.52;78.86;102635.84;4995314;28;45219;-79
2022/01/24 12:23:25;;;;;;;;;33.00;28.75;;;;;5.58;77.91;102637.25;5000095;28;46511;-80
2022/01/24 12:26:08;;;;;;;;;36.00;29.00;;;;;5.57;78.25;102627.66;4996979;28;45395;-82
2022/01/24 12:28:46;;;;;;;;;24.75;23.25;;;;;5.62;77.83;102630.84;5016462;28;45405;-79
2022/01/24 12:31:26;;;;;;;;;26.75;25.25;;;;;5.66;78.44;102628.88;5019696;28;45641;-80
2022/01/24 12:34:04;;;;;;;;;34.00;29.50;;;;;5.70;77.98;102622.47;5002419;28;47209;-79
2022/01/24 12:36:46;;;;;;;;;28.50;26.75;;;;;5.76;78.12;102637.06;5000075;28;45363;-80
2022/01/24 12:39:46;;;;;;;;;30.25;28.00;;;;;5.80;77.56;102630.63;4998836;28;45278;-80
2022/01/24 12:42:28;;;;;;;;;28.00;24.50;;;;;5.77;77.23;102623.75;4990031;28;45391;-81
2022/01/24 12:47:38;;;;;;;;;29.00;26.50;;;;;5.89;76.78;102626.56;5001184;28;45471;-79
2022/01/24 12:50:04;;;;;;;;;27.00;24.50;;;;;5.88;77.14;102625.75;5001809;28;45760;-79
2022/01/24 12:52:29;;;;;;;;;30.75;28.50;;;;;5.87;76.88;102615.28;5003472;28;45347;-78
2022/01/24 12:55:00;;;;;;;;;28.50;23.50;;;;;6.00;76.93;102628.53;5001146;28;45965;-78
2022/01/24 12:57:32;;;;;;;;;26.00;26.00;;;;;6.00;76.79;102610.91;5002411;28;45225;-79
2022/01/24 13:00:01;;;;;;;;;28.00;24.00;;;;;6.09;76.96;102628.00;5000905;28;45325;-78
2022/01/24 13:02:30;;;;;;;;;29.50;27.00;;;;;6.11;76.87;102626.06;5001283;28;45233;-79
2022/01/24 13:05:00;;;;;;;;;33.00;28.33;;;;;6.15;76.73;102622.31;4982874;28;48175;-78
2022/01/24 13:07:26;;;;;;;;;22.25;20.75;;;;;6.11;75.75;102617.34;5001507;28;45161;-78
2022/01/24 13:10:00;;;;;;;;;31.50;28.25;;;;;6.16;75.03;102621.38;5001000;28;45417;-78
2022/01/24 13:12:26;;;;;;;;;31.00;28.75;;;;;6.19;75.88;102622.94;4983681;28;45933;-79
2022/01/24 13:14:57;;;;;;;;;28.33;26.00;;;;;6.14;75.80;102607.41;5000361;28;45343;-78